Sao Pedro Do Mar — CUFR8 — position and weather

sailwx.info

Track history (hours):
 
Tides and Currents Weather Stations Pressure Air Temp Water Temp Dewpoint Dewpoint Depression Visibility Wind Speed Wind Dir Waves Ship Positions

Sao Pedro Do Mar

Last reported at 2017-Dec-21 02:04 UTC. Time now 2018-Jan-20 23:12 UTC.
Position N 36°48' W 008°07'.
Warning: this ship's position is 30 days out of date.

Length 25 m.

MMSI: 263411770.

Date/timePositionNaut miles runAvg speedWind from/ knotsBaromVisibWave heightAir tempDewpointWater temp
2017-Dec-21 02:04N 36°48' W 008°07'0 3.0
2017-Dec-21 01:58N 36°48' W 008°07'1 3.0
2017-Dec-21 01:29N 36°48' W 008°09'3 4.1
2017-Dec-21 00:38N 36°47' W 008°13'1 2.8
2017-Dec-21 00:26N 36°47' W 008°14'4 2.4
2017-Dec-20 22:51N 36°47' W 008°19'1 3.1
2017-Dec-20 22:31N 36°47' W 008°20'6 3.1
2017-Dec-20 20:39N 36°48' W 008°27'1 3.0
2017-Dec-20 20:27N 36°48' W 008°28'2 2.9
2017-Dec-20 19:55N 36°48' W 008°30'2 3.7
2017-Dec-20 19:30N 36°48' W 008°32'8 8.1
2017-Dec-20 18:33N 36°47' W 008°41'0 2.4
2017-Dec-20 18:25N 36°47' W 008°42'0 0.5
2017-Dec-20 17:52N 36°48' W 008°42'1 3.0
2017-Dec-20 17:26N 36°48' W 008°44'11 1.0
2017-Dec-20 06:26N 36°48' W 008°30'17 2.9
2017-Dec-20 00:32N 36°48' W 008°09'2 0.1
2017-Dec-18 06:20N 36°48' W 008°06'4 7.6
2017-Dec-18 05:49N 36°47' W 008°11'0 1.0
2017-Dec-18 05:25N 36°48' W 008°11'1 1.8
2017-Dec-18 04:59N 36°48' W 008°12'1 2.8
2017-Dec-18 04:30N 36°47' W 008°14'2 2.8
2017-Dec-18 03:57N 36°47' W 008°16'4 2.8
2017-Dec-18 02:21N 36°48' W 008°21'1 2.9
2017-Dec-18 01:52N 36°48' W 008°23'1 2.9
2017-Dec-18 01:31N 36°48' W 008°24'2 2.9
2017-Dec-18 00:47N 36°48' W 008°27'1 2.9
2017-Dec-18 00:29N 36°48' W 008°28'1 2.9
2017-Dec-18 00:00N 36°48' W 008°30'2 3.3
2017-Dec-17 23:24N 36°48' W 008°32'3 3.7
2017-Dec-17 22:41N 36°51' W 008°32'16 1.4
2017-Dec-17 11:12N 36°48' W 008°13'2 0.7
2017-Dec-17 09:04N 36°48' W 008°12'0 2.9
2017-Dec-17 09:00N 36°48' W 008°11'2 2.9
2017-Dec-17 08:23N 36°48' W 008°09'1 2.9
2017-Dec-17 07:59N 36°48' W 008°08'3 3.2
2017-Dec-17 07:09N 36°49' W 008°04'0 2.4
2017-Dec-17 06:59N 36°49' W 008°04'0 0.7
2017-Dec-17 06:29N 36°49' W 008°04'1 0.9
2017-Dec-17 05:44N 36°49' W 008°05'1 2.8
2017-Dec-17 05:19N 36°49' W 008°07'1 2.8
2017-Dec-17 04:49N 36°49' W 008°08'1 2.8
2017-Dec-17 04:30N 36°48' W 008°09'1 2.9
2017-Dec-17 04:00N 36°48' W 008°11'2 2.9
2017-Dec-17 03:28N 36°48' W 008°13'1 2.8
2017-Dec-17 02:57N 36°48' W 008°15'1 2.9
2017-Dec-17 02:30N 36°48' W 008°17'3 2.9
2017-Dec-17 01:35N 36°50' W 008°18'0 2.7
2017-Dec-17 01:26N 36°51' W 008°18'1 2.8
2017-Dec-17 01:00N 36°51' W 008°20'1 2.8
2017-Dec-17 00:30N 36°51' W 008°22'2 2.9
2017-Dec-16 23:59N 36°51' W 008°24'1 2.9
2017-Dec-16 23:29N 36°52' W 008°25'1 3.0
2017-Dec-16 23:00N 36°52' W 008°27'1 2.8
2017-Dec-16 22:31N 36°53' W 008°29'1 2.3
2017-Dec-16 21:58N 36°54' W 008°30'4 3.0
2017-Dec-16 20:32N 36°53' W 008°24'0 3.1
2017-Dec-16 20:26N 36°53' W 008°24'2 3.1
2017-Dec-16 19:56N 36°52' W 008°23'12 2.1
2017-Dec-16 14:21N 36°48' W 008°09'0 1.0
2017-Dec-16 13:56N 36°49' W 008°09'10 2.9
2017-Dec-16 10:35N 36°48' W 008°21'0 2.8
2017-Dec-16 10:24N 36°48' W 008°21'1 1.1
2017-Dec-16 09:50N 36°47' W 008°21'2 2.7
2017-Dec-16 09:07N 36°47' W 008°24'0 2.6
2017-Dec-16 08:59N 36°47' W 008°24'4 2.7
2017-Dec-16 07:31N 36°47' W 008°29'1 2.7
2017-Dec-16 07:17N 36°47' W 008°30'1 2.5
2017-Dec-16 07:00N 36°47' W 008°31'1 0.8
2017-Dec-16 05:22N 36°48' W 008°29'1 3.0
2017-Dec-16 04:55N 36°48' W 008°28'3 3.2
2017-Dec-16 03:56N 36°48' W 008°24'3 2.8
2017-Dec-16 02:49N 36°48' W 008°28'2 2.7
2017-Dec-16 02:08N 36°48' W 008°30'1 5.1
2017-Dec-16 01:59N 36°48' W 008°31'1 1.3
2017-Dec-16 00:50N 36°49' W 008°29'7 3.0
2017-Dec-15 22:27N 36°48' W 008°21'1 0.3
2017-Dec-15 20:41N 36°48' W 008°20'1 2.8
2017-Dec-15 20:28N 36°48' W 008°21'3 2.9
2017-Dec-15 19:31N 36°48' W 008°24'3 2.9
2017-Dec-15 18:25N 36°48' W 008°28'1 1.8
2017-Dec-15 17:50N 36°49' W 008°28'1 1.8
2017-Dec-15 17:15N 36°49' W 008°26'1 2.8
2017-Dec-15 16:47N 36°49' W 008°25'1 2.8
2017-Dec-15 16:22N 36°49' W 008°23'2 2.8
2017-Dec-15 15:38N 36°49' W 008°21'0 2.8
2017-Dec-15 15:30N 36°49' W 008°20'4 2.0
2017-Dec-15 13:20N 36°47' W 008°15'6 0.2
2017-Dec-14 01:04N 36°46' W 008°23'2 3.0
2017-Dec-14 00:23N 36°47' W 008°26'2 3.2
2017-Dec-13 23:55N 36°47' W 008°28'2 3.0
2017-Dec-13 23:24N 36°47' W 008°30'10 0.6
2017-Dec-13 06:24N 36°47' W 008°42'8 3.1
2017-Dec-13 03:58N 36°48' W 008°32'2 3.0
2017-Dec-13 03:15N 36°48' W 008°30'1 3.0
2017-Dec-13 02:52N 36°48' W 008°28'  
Track history (hours):
 
Tides and Currents Weather Stations Pressure Air Temp Water Temp Dewpoint Dewpoint Depression Visibility Wind Speed Wind Dir Waves Ship Positions

Sao Pedro Do Mar

Last reported at 2017-Dec-21 02:04 UTC. Time now 2018-Jan-20 23:12 UTC.
Position N 36°48' W 008°07'.
Warning: this ship's position is 30 days out of date.

Length 25 m.

MMSI: 263411770.

Date/timePositionNaut miles runAvg speedWind from/ knotsBaromVisibWave heightAir tempDewpointWater temp
2017-Dec-21 02:04N 36°48' W 008°07'0 3.0
2017-Dec-21 01:58N 36°48' W 008°07'1 3.0
2017-Dec-21 01:29N 36°48' W 008°09'3 4.1
2017-Dec-21 00:38N 36°47' W 008°13'1 2.8
2017-Dec-21 00:26N 36°47' W 008°14'4 2.4
2017-Dec-20 22:51N 36°47' W 008°19'1 3.1
2017-Dec-20 22:31N 36°47' W 008°20'6 3.1
2017-Dec-20 20:39N 36°48' W 008°27'1 3.0
2017-Dec-20 20:27N 36°48' W 008°28'2 2.9
2017-Dec-20 19:55N 36°48' W 008°30'2 3.7
2017-Dec-20 19:30N 36°48' W 008°32'8 8.1
2017-Dec-20 18:33N 36°47' W 008°41'0 2.4
2017-Dec-20 18:25N 36°47' W 008°42'0 0.5
2017-Dec-20 17:52N 36°48' W 008°42'1 3.0
2017-Dec-20 17:26N 36°48' W 008°44'11 1.0
2017-Dec-20 06:26N 36°48' W 008°30'17 2.9
2017-Dec-20 00:32N 36°48' W 008°09'2 0.1
2017-Dec-18 06:20N 36°48' W 008°06'4 7.6
2017-Dec-18 05:49N 36°47' W 008°11'0 1.0
2017-Dec-18 05:25N 36°48' W 008°11'1 1.8
2017-Dec-18 04:59N 36°48' W 008°12'1 2.8
2017-Dec-18 04:30N 36°47' W 008°14'2 2.8
2017-Dec-18 03:57N 36°47' W 008°16'4 2.8
2017-Dec-18 02:21N 36°48' W 008°21'1 2.9
2017-Dec-18 01:52N 36°48' W 008°23'1 2.9
2017-Dec-18 01:31N 36°48' W 008°24'2 2.9
2017-Dec-18 00:47N 36°48' W 008°27'1 2.9
2017-Dec-18 00:29N 36°48' W 008°28'1 2.9
2017-Dec-18 00:00N 36°48' W 008°30'2 3.3
2017-Dec-17 23:24N 36°48' W 008°32'3 3.7
2017-Dec-17 22:41N 36°51' W 008°32'16 1.4
2017-Dec-17 11:12N 36°48' W 008°13'2 0.7
2017-Dec-17 09:04N 36°48' W 008°12'0 2.9
2017-Dec-17 09:00N 36°48' W 008°11'2 2.9
2017-Dec-17 08:23N 36°48' W 008°09'1 2.9
2017-Dec-17 07:59N 36°48' W 008°08'3 3.2
2017-Dec-17 07:09N 36°49' W 008°04'0 2.4
2017-Dec-17 06:59N 36°49' W 008°04'0 0.7
2017-Dec-17 06:29N 36°49' W 008°04'1 0.9
2017-Dec-17 05:44N 36°49' W 008°05'1 2.8
2017-Dec-17 05:19N 36°49' W 008°07'1 2.8
2017-Dec-17 04:49N 36°49' W 008°08'1 2.8
2017-Dec-17 04:30N 36°48' W 008°09'1 2.9
2017-Dec-17 04:00N 36°48' W 008°11'2 2.9
2017-Dec-17 03:28N 36°48' W 008°13'1 2.8
2017-Dec-17 02:57N 36°48' W 008°15'1 2.9
2017-Dec-17 02:30N 36°48' W 008°17'3 2.9
2017-Dec-17 01:35N 36°50' W 008°18'0 2.7
2017-Dec-17 01:26N 36°51' W 008°18'1 2.8
2017-Dec-17 01:00N 36°51' W 008°20'1 2.8
2017-Dec-17 00:30N 36°51' W 008°22'2 2.9
2017-Dec-16 23:59N 36°51' W 008°24'1 2.9
2017-Dec-16 23:29N 36°52' W 008°25'1 3.0
2017-Dec-16 23:00N 36°52' W 008°27'1 2.8
2017-Dec-16 22:31N 36°53' W 008°29'1 2.3
2017-Dec-16 21:58N 36°54' W 008°30'4 3.0
2017-Dec-16 20:32N 36°53' W 008°24'0 3.1
2017-Dec-16 20:26N 36°53' W 008°24'2 3.1
2017-Dec-16 19:56N 36°52' W 008°23'12 2.1
2017-Dec-16 14:21N 36°48' W 008°09'0 1.0
2017-Dec-16 13:56N 36°49' W 008°09'10 2.9
2017-Dec-16 10:35N 36°48' W 008°21'0 2.8
2017-Dec-16 10:24N 36°48' W 008°21'1 1.1
2017-Dec-16 09:50N 36°47' W 008°21'2 2.7
2017-Dec-16 09:07N 36°47' W 008°24'0 2.6
2017-Dec-16 08:59N 36°47' W 008°24'4 2.7
2017-Dec-16 07:31N 36°47' W 008°29'1 2.7
2017-Dec-16 07:17N 36°47' W 008°30'1 2.5
2017-Dec-16 07:00N 36°47' W 008°31'1 0.8
2017-Dec-16 05:22N 36°48' W 008°29'1 3.0
2017-Dec-16 04:55N 36°48' W 008°28'3 3.2
2017-Dec-16 03:56N 36°48' W 008°24'3 2.8
2017-Dec-16 02:49N 36°48' W 008°28'2 2.7
2017-Dec-16 02:08N 36°48' W 008°30'1 5.1
2017-Dec-16 01:59N 36°48' W 008°31'1 1.3
2017-Dec-16 00:50N 36°49' W 008°29'7 3.0
2017-Dec-15 22:27N 36°48' W 008°21'1 0.3
2017-Dec-15 20:41N 36°48' W 008°20'1 2.8
2017-Dec-15 20:28N 36°48' W 008°21'3 2.9
2017-Dec-15 19:31N 36°48' W 008°24'3 2.9
2017-Dec-15 18:25N 36°48' W 008°28'1 1.8
2017-Dec-15 17:50N 36°49' W 008°28'1 1.8
2017-Dec-15 17:15N 36°49' W 008°26'1 2.8
2017-Dec-15 16:47N 36°49' W 008°25'1 2.8
2017-Dec-15 16:22N 36°49' W 008°23'2 2.8
2017-Dec-15 15:38N 36°49' W 008°21'0 2.8
2017-Dec-15 15:30N 36°49' W 008°20'4 2.0
2017-Dec-15 13:20N 36°47' W 008°15'6 0.2
2017-Dec-14 01:04N 36°46' W 008°23'2 3.0
2017-Dec-14 00:23N 36°47' W 008°26'2 3.2
2017-Dec-13 23:55N 36°47' W 008°28'2 3.0
2017-Dec-13 23:24N 36°47' W 008°30'10 0.6
2017-Dec-13 06:24N 36°47' W 008°42'8 3.1
2017-Dec-13 03:58N 36°48' W 008°32'2 3.0
2017-Dec-13 03:15N 36°48' W 008°30'1 3.0
2017-Dec-13 02:52N 36°48' W 008°28'  

Dump ship's entire track history